首页
METAR-TAF:

METAR-TAF

机场 :

务安国际机场

光州廣域, 大韩民国

纬度: 34-59-29N, 经度: 126-22-58E, 海拔: 16米

当前天气观测

该预报发布于52分钟前的11:09 UTC
风速7节,风向南转西南
温度 22°C
湿度 88%
气压 1003 hPa
能見度: 4000
散云层高于700英尺
多云层高于2500英尺
阴天层高于8000英尺
小雨, 轻雾,

METAR: RKJB 261109Z 21007KT 4000 -RA BR SCT007 BKN025 OVC080 22/20 Q1003 NOSIG

时间: 21:01 (12:01 UTC)

预报

该预报发布于1小时和1分钟前的11:00 UTC
预报有效从26日的 12点(UTC)到 27日的 18点(UTC)
风速7节,风向南转西南
能見度: 6000
散云层高于500英尺
多云层高于2500英尺
阴天层高于8000英尺
小雨
成为
从 26日的 13点(UTC)到 26日的 14点(UTC)
风速6节,风向西转西南
能見度: 4000
多云层高于500英尺
多云层高于2500英尺
阴天层高于8000英尺
成为
从 26日的 15点(UTC)到 26日的 16点(UTC)
风速10节,风向北转西北
能見度: 1600
成为
从 26日的 19点(UTC)到 26日的 20点(UTC)
能見度: 4000
少量云层高于1000英尺
多云层高于2500英尺
阴天层高于8000英尺
轻雾
成为
从 26日的 21点(UTC)到 26日的 22点(UTC)
能见度10公里或以上
1500米以下无云,无积雨云
成为
从 27日的 12点(UTC)到 27日的 13点(UTC)
风速6节,风向东北

TAF: RKJB 261100Z 2612/2718 21007KT 6000 -RA SCT005 BKN025 OVC080 TN16/2620Z TX21/2704Z BECMG 2613/2614 24006KT 4000 BKN005 BKN025 OVC080 BECMG 2615/2616 34010KT 1600 BECMG 2619/2620 4000 BR FEW010 BKN025 OVC080 BECMG 2621/2622 CAVOK BECMG 2712/2713 04006KT

超过4000个机场的气象观测和天气预报(METAR&TAF报告)。

可查询的气象台以黄色和红色小点在地图上表示。

将鼠标移到小点上方,可查看气象台名称。

然后点击查看天气观测和预报。

如需切换地图:点击带黑十字的绿色按钮放大地图;点击带横线的绿色按钮缩小地图;或者点击绿色箭头查看邻近地区的地图。


METAR-TAF: